Albia, Iowa
Current Conditions -  °F | °C
As of 2:53 PM on Thursday 18 Dec 2014 (Local Time) from KOTM Reporting Station
Haze Haze  
Wind Chill: -3°   Ceiling: 4800
Heat Index: -3°   Visibility: 5mi
Dew Point: -6°   Wind: 3mph
Humidity: 81%   Direction: 50°NE
Pressure: 30.24"   Gusts: NA
Location:  41.03°N, 92.81°W
Report Text: KOTM 182053Z AUTO 05003KT 5SM HZ OVC048 M03/M06 A3024 RMK AO2 SLP251 60001 T10281056 55011
Loading
Personal Weather Stations






























Interactive Weather Map New forecast layout! Learn more

10-Day Weather Forecast

Advertisements
Track Severe Weather on mobile